Time;durP1;ratioP1;P1;durP2;ratioP2;P2;SDS_P1;SDS_P2;PMS_P1;PMS_P2;Temp;Humidity;BMP_temperature;BMP_pressure;BME280_temperature;BME280_humidity;BME280_pressure;Samples;Min_cycle;Max_cycle;Signal;HPM_P1;HPM_P2
2021/01/01 00:01:44;;;;;;;50.15;19.13;;;2.30;99.90;;;;;;4971394;28;20220;-69
2021/01/01 00:04:10;;;;;;;39.05;17.25;;;2.30;99.90;;;;;;4972743;28;20630;-70
2021/01/01 00:06:37;;;;;;;50.33;20.00;;;2.20;99.90;;;;;;4963300;28;20234;-70
2021/01/01 00:09:07;;;;;;;85.63;21.00;;;2.20;99.90;;;;;;4968199;28;20211;-69
2021/01/01 00:11:33;;;;;;;40.53;17.90;;;2.10;99.90;;;;;;4973710;28;20203;-70
2021/01/01 00:13:59;;;;;;;44.38;18.80;;;2.10;99.90;;;;;;4961469;28;20292;-71
2021/01/01 00:16:25;;;;;;;45.85;19.52;;;2.10;99.90;;;;;;4967995;28;20222;-69
2021/01/01 00:18:51;;;;;;;46.95;21.40;;;2.10;99.90;;;;;;4969914;28;20679;-71
2021/01/01 00:21:17;;;;;;;50.85;21.85;;;2.10;99.90;;;;;;4971244;28;20219;-70
2021/01/01 00:23:43;;;;;;;49.70;22.40;;;2.10;99.90;;;;;;4970336;28;20262;-70
2021/01/01 00:26:16;;;;;;;45.60;20.77;;;2.10;99.90;;;;;;4961580;28;21066;-70
2021/01/01 00:28:43;;;;;;;35.03;16.10;;;2.00;99.90;;;;;;4971107;28;20243;-69
2021/01/01 00:31:24;;;;;;;32.70;14.65;;;2.00;99.90;;;;;;4969818;28;20191;-70
2021/01/01 00:33:50;;;;;;;34.33;14.23;;;2.00;99.90;;;;;;4970503;28;20196;-69
2021/01/01 00:36:17;;;;;;;25.30;12.18;;;2.00;99.90;;;;;;4967282;28;20215;-70
2021/01/01 00:38:54;;;;;;;35.78;12.25;;;2.00;99.90;;;;;;4964538;28;20294;-69
2021/01/01 00:41:29;;;;;;;27.48;10.45;;;2.00;99.90;;;;;;4971059;28;20206;-70
2021/01/01 00:43:56;;;;;;;22.05;10.05;;;2.00;99.90;;;;;;4976089;28;20330;-70
2021/01/01 00:46:23;;;;;;;20.75;9.18;;;1.90;99.90;;;;;;4970683;28;20223;-70
2021/01/01 00:48:49;;;;;;;19.88;8.38;;;1.90;99.90;;;;;;4975983;28;20207;-69
2021/01/01 00:51:22;;;;;;;23.13;9.93;;;1.90;99.90;;;;;;4978298;28;20203;-69
2021/01/01 00:53:48;;;;;;;24.90;9.60;;;1.90;99.90;;;;;;4979248;28;20802;-70
2021/01/01 00:56:24;;;;;;;20.13;8.80;;;1.90;99.90;;;;;;4977129;28;20222;-69
2021/01/01 00:58:51;;;;;;;30.33;10.80;;;2.00;99.90;;;;;;4973730;28;20274;-70
2021/01/01 01:01:18;;;;;;;21.80;8.73;;;2.00;99.90;;;;;;4976917;28;20202;-69
2021/01/01 01:03:44;;;;;;;23.83;10.07;;;2.00;99.90;;;;;;4978745;28;20238;-69
2021/01/01 01:06:09;;;;;;;21.08;9.32;;;2.00;99.90;;;;;;4980722;28;20215;-69
2021/01/01 01:08:35;;;;;;;23.33;9.73;;;2.00;99.90;;;;;;4976409;28;20211;-68
2021/01/01 01:11:02;;;;;;;19.38;8.70;;;2.00;99.90;;;;;;4981610;28;20203;-69
2021/01/01 01:13:28;;;;;;;18.58;8.95;;;2.00;99.90;;;;;;4979670;28;20226;-68
2021/01/01 01:15:53;;;;;;;26.98;8.65;;;2.00;99.90;;;;;;4975568;28;20204;-68
2021/01/01 01:18:19;;;;;;;16.92;7.63;;;2.00;99.90;;;;;;4976894;28;20253;-68
2021/01/01 01:20:45;;;;;;;21.83;8.32;;;2.00;99.90;;;;;;4977958;28;20295;-68
2021/01/01 01:23:10;;;;;;;16.70;7.55;;;2.00;99.90;;;;;;4979510;28;20208;-68
2021/01/01 01:25:36;;;;;;;20.20;8.57;;;2.00;99.90;;;;;;4979133;28;20206;-68
2021/01/01 01:28:02;;;;;;;16.15;7.72;;;2.10;99.90;;;;;;4978950;28;20753;-68
2021/01/01 01:30:28;;;;;;;17.60;7.55;;;2.10;99.90;;;;;;4978943;28;20769;-69
2021/01/01 01:32:54;;;;;;;19.67;8.13;;;2.10;99.90;;;;;;4979489;28;20200;-69
2021/01/01 01:35:19;;;;;;;19.98;7.05;;;2.10;99.90;;;;;;4978449;28;20311;-69
2021/01/01 01:37:45;;;;;;;15.63;7.35;;;2.00;99.90;;;;;;4977882;28;20275;-68
2021/01/01 01:40:11;;;;;;;17.27;7.32;;;2.00;99.90;;;;;;4978276;28;20204;-69
2021/01/01 01:42:37;;;;;;;68.80;8.88;;;2.00;99.90;;;;;;4976341;28;20210;-68
2021/01/01 01:45:05;;;;;;;23.77;6.88;;;1.90;99.90;;;;;;4978468;28;20610;-69
2021/01/01 01:47:31;;;;;;;18.67;6.70;;;1.80;99.90;;;;;;4977580;28;20243;-68
2021/01/01 01:49:57;;;;;;;12.45;5.80;;;1.80;99.90;;;;;;4977336;28;20708;-69
2021/01/01 01:52:23;;;;;;;14.32;6.13;;;1.80;99.90;;;;;;4977249;28;20291;-69
2021/01/01 01:54:52;;;;;;;13.70;6.30;;;1.70;99.90;;;;;;4977451;28;20961;-69
2021/01/01 01:57:18;;;;;;;118.30;9.50;;;1.80;99.90;;;;;;4975864;28;20199;-69
2021/01/01 01:59:46;;;;;;;15.30;6.65;;;1.70;99.90;;;;;;4977940;28;20192;-68
2021/01/01 02:02:12;;;;;;;16.40;6.05;;;1.70;99.90;;;;;;4975434;28;20202;-68
2021/01/01 02:04:39;;;;;;;17.35;6.00;;;1.80;99.90;;;;;;4974094;23;20231;-75
2021/01/01 02:07:04;;;;;;;12.68;6.10;;;1.70;99.90;;;;;;4993893;28;20195;-75
2021/01/01 02:09:31;;;;;;;12.63;5.93;;;1.70;99.90;;;;;;4997316;28;20613;-75
2021/01/01 02:11:57;;;;;;;15.68;6.00;;;1.70;99.90;;;;;;4994891;28;20196;-75
2021/01/01 02:14:22;;;;;;;152.63;9.32;;;1.70;99.90;;;;;;4996829;28;20199;-75
2021/01/01 02:16:49;;;;;;;19.00;6.75;;;1.70;99.90;;;;;;4991706;28;20227;-75
2021/01/01 02:19:14;;;;;;;11.30;5.63;;;1.70;99.90;;;;;;4991322;28;20774;-75
2021/01/01 02:21:41;;;;;;;14.82;6.53;;;1.60;99.90;;;;;;4991610;28;20207;-74
2021/01/01 02:24:11;;;;;;;18.45;6.57;;;1.60;99.90;;;;;;4990205;28;20199;-75
2021/01/01 02:26:38;;;;;;;16.75;6.07;;;1.60;99.90;;;;;;4993361;28;20202;-75
2021/01/01 02:29:04;;;;;;;24.58;6.10;;;1.60;99.90;;;;;;4993827;28;20262;-75
2021/01/01 02:31:30;;;;;;;32.90;7.20;;;1.60;99.90;;;;;;4991543;28;20203;-75
2021/01/01 02:33:55;;;;;;;17.10;6.72;;;1.60;99.90;;;;;;4990053;28;20203;-75
2021/01/01 02:36:21;;;;;;;11.07;5.68;;;1.60;99.90;;;;;;4995161;28;20715;-75
2021/01/01 02:38:47;;;;;;;12.80;5.82;;;1.60;99.90;;;;;;4992072;28;20222;-75
2021/01/01 02:41:13;;;;;;;12.88;5.57;;;1.60;99.90;;;;;;4987876;28;20753;-76
2021/01/01 02:43:39;;;;;;;20.75;5.10;;;1.60;99.90;;;;;;4991614;28;20937;-75
2021/01/01 02:46:05;;;;;;;10.90;5.53;;;1.60;99.90;;;;;;4989897;28;20257;-75
2021/01/01 02:48:30;;;;;;;16.30;5.85;;;1.70;99.90;;;;;;4986356;28;21191;-75
2021/01/01 02:50:56;;;;;;;13.13;5.05;;;1.60;99.90;;;;;;4986635;28;20318;-75
2021/01/01 02:53:22;;;;;;;13.90;5.13;;;1.70;99.90;;;;;;4993245;28;20198;-75
2021/01/01 02:55:48;;;;;;;12.88;4.88;;;1.70;99.90;;;;;;4985826;28;20213;-76
2021/01/01 02:58:15;;;;;;;11.63;4.97;;;1.70;99.90;;;;;;4992028;28;20195;-75
2021/01/01 03:00:42;;;;;;;10.57;4.40;;;1.70;99.90;;;;;;4987964;28;20195;-74
2021/01/01 03:03:08;;;;;;;15.40;4.68;;;1.80;99.90;;;;;;4990311;28;20200;-74
2021/01/01 03:05:35;;;;;;;9.05;4.43;;;1.80;99.90;;;;;;4993963;28;20721;-74
2021/01/01 03:08:01;;;;;;;11.68;5.07;;;1.80;99.90;;;;;;4990491;28;20215;-74
2021/01/01 03:10:26;;;;;;;12.00;5.00;;;1.80;99.90;;;;;;4994400;28;20210;-74
2021/01/01 03:12:52;;;;;;;10.50;4.22;;;1.80;99.90;;;;;;4995472;28;20209;-74
2021/01/01 03:15:18;;;;;;;10.70;4.55;;;1.80;99.90;;;;;;4996573;28;20217;-74
2021/01/01 03:17:44;;;;;;;11.10;4.93;;;1.90;99.90;;;;;;4989477;28;20249;-74
2021/01/01 03:20:10;;;;;;;14.18;5.05;;;1.90;99.90;;;;;;4986588;28;20956;-75
2021/01/01 03:22:36;;;;;;;13.82;5.93;;;1.90;99.90;;;;;;4988686;28;20207;-75
2021/01/01 03:25:04;;;;;;;13.95;5.60;;;1.80;99.90;;;;;;4988095;28;21022;-75
2021/01/01 03:27:30;;;;;;;16.35;6.75;;;1.80;99.90;;;;;;4992768;28;20859;-75
2021/01/01 03:29:55;;;;;;;11.32;4.93;;;1.80;99.90;;;;;;4992095;28;20285;-74
2021/01/01 03:32:21;;;;;;;17.05;6.10;;;1.80;99.90;;;;;;4990509;28;20202;-74
2021/01/01 03:34:47;;;;;;;12.40;5.45;;;1.80;99.90;;;;;;4987834;28;20206;-74
2021/01/01 03:37:12;;;;;;;13.43;5.70;;;1.80;99.90;;;;;;4995055;28;20190;-74
2021/01/01 03:39:38;;;;;;;16.38;5.82;;;1.80;99.90;;;;;;4996428;28;20208;-74
2021/01/01 03:42:04;;;;;;;10.05;4.85;;;1.80;99.90;;;;;;4996875;28;20202;-75
2021/01/01 03:44:29;;;;;;;18.10;5.65;;;1.80;99.90;;;;;;4997161;28;20314;-74
2021/01/01 03:46:55;;;;;;;12.15;5.68;;;1.80;99.90;;;;;;4988271;28;20273;-75
2021/01/01 03:49:21;;;;;;;10.25;5.05;;;1.70;99.90;;;;;;4993307;28;20327;-75
2021/01/01 03:51:46;;;;;;;11.50;5.50;;;1.70;99.90;;;;;;4993278;28;20199;-74
2021/01/01 03:54:15;;;;;;;12.82;5.40;;;1.70;99.90;;;;;;4995647;28;20697;-75
2021/01/01 03:56:40;;;;;;;16.33;5.57;;;1.70;99.90;;;;;;4995346;28;20210;-74
2021/01/01 03:59:06;;;;;;;12.77;5.97;;;1.70;99.90;;;;;;4994166;28;20237;-74
2021/01/01 04:01:32;;;;;;;27.45;6.18;;;1.70;99.90;;;;;;4993865;28;20199;-74
2021/01/01 04:03:58;;;;;;;12.45;5.30;;;1.70;99.90;;;;;;4994957;28;20233;-75
2021/01/01 04:06:24;;;;;;;14.05;6.10;;;1.70;99.90;;;;;;4992326;28;20195;-75
2021/01/01 04:08:49;;;;;;;15.77;5.88;;;1.70;99.90;;;;;;4995418;28;20614;-74
2021/01/01 04:11:15;;;;;;;14.02;5.78;;;1.60;99.90;;;;;;4994692;28;20191;-75
2021/01/01 04:13:40;;;;;;;14.07;6.28;;;1.70;99.90;;;;;;4996168;28;20195;-74
2021/01/01 04:16:06;;;;;;;16.15;5.93;;;1.60;99.90;;;;;;4992747;28;20238;-74
2021/01/01 04:18:32;;;;;;;13.80;6.15;;;1.60;99.90;;;;;;4995937;28;20606;-74
2021/01/01 04:20:58;;;;;;;15.98;6.18;;;1.60;99.90;;;;;;4999275;28;20202;-74
2021/01/01 04:23:23;;;;;;;11.30;5.53;;;1.60;99.90;;;;;;4996306;28;20196;-75
2021/01/01 04:25:49;;;;;;;13.27;5.85;;;1.70;99.90;;;;;;4997219;28;20202;-74
2021/01/01 04:28:15;;;;;;;17.20;6.95;;;1.70;99.90;;;;;;4999741;28;20325;-74
2021/01/01 04:30:41;;;;;;;12.90;5.90;;;1.70;99.90;;;;;;4997888;28;20880;-74
2021/01/01 04:33:06;;;;;;;15.35;5.97;;;1.70;99.90;;;;;;4998344;28;20238;-74
2021/01/01 04:35:32;;;;;;;15.75;6.38;;;1.70;99.90;;;;;;4999455;28;20211;-75
2021/01/01 04:37:57;;;;;;;17.10;6.45;;;1.70;99.90;;;;;;4992984;28;20225;-74
2021/01/01 04:40:24;;;;;;;15.13;6.20;;;1.70;99.90;;;;;;4998383;28;20234;-74
2021/01/01 04:42:50;;;;;;;18.83;6.20;;;1.80;99.90;;;;;;4998761;28;20203;-74
2021/01/01 04:45:16;;;;;;;15.68;6.88;;;1.80;99.90;;;;;;4992102;28;20217;-74
2021/01/01 04:47:42;;;;;;;14.88;6.47;;;1.80;99.90;;;;;;4997244;28;20202;-74
2021/01/01 04:50:09;;;;;;;14.00;6.57;;;1.70;99.90;;;;;;4998428;28;20235;-75
2021/01/01 04:52:34;;;;;;;18.17;6.75;;;1.80;99.90;;;;;;4996535;28;20207;-75
2021/01/01 04:55:00;;;;;;;14.27;6.43;;;1.80;99.90;;;;;;4995241;28;20212;-74
2021/01/01 04:57:29;;;;;;;18.52;6.95;;;1.80;99.90;;;;;;4994979;28;20214;-75
2021/01/01 04:59:55;;;;;;;19.10;6.68;;;1.80;99.90;;;;;;4994307;28;20199;-75
2021/01/01 05:02:21;;;;;;;15.55;6.43;;;1.70;99.90;;;;;;4997558;28;20269;-74
2021/01/01 05:04:47;;;;;;;15.20;6.28;;;1.80;99.90;;;;;;4996060;28;20235;-74
2021/01/01 05:07:17;;;;;;;12.35;5.78;;;1.80;99.90;;;;;;4997660;28;20772;-75
2021/01/01 05:09:42;;;;;;;10.23;5.53;;;1.80;99.90;;;;;;4997379;28;20209;-74
2021/01/01 05:12:09;;;;;;;18.58;6.75;;;1.80;99.90;;;;;;4994235;28;20513;-74
2021/01/01 05:14:35;;;;;;;14.80;6.13;;;1.80;99.90;;;;;;4995626;28;20203;-75
2021/01/01 05:17:01;;;;;;;12.50;5.57;;;1.80;99.90;;;;;;4996012;28;20694;-76
2021/01/01 05:19:43;;;;;;;12.27;6.18;;;1.80;99.90;;;;;;4996156;28;20195;-76
2021/01/01 05:22:16;;;;;;;12.32;5.90;;;1.80;99.90;;;;;;4997937;28;20623;-76
2021/01/01 05:24:43;;;;;;;16.73;6.30;;;1.80;99.90;;;;;;4993565;28;20203;-75
2021/01/01 05:27:11;;;;;;;15.52;6.60;;;1.70;99.90;;;;;;4994364;28;20195;-75
2021/01/01 05:30:00;;;;;;;21.08;7.25;;;1.70;99.90;;;;;;4995769;28;20195;-76
2021/01/01 05:32:28;;;;;;;16.35;5.85;;;1.60;99.90;;;;;;4996338;28;20206;-76
2021/01/01 05:34:55;;;;;;;15.18;6.75;;;1.60;99.90;;;;;;4994181;28;20781;-76
2021/01/01 05:37:32;;;;;;;15.52;6.78;;;1.60;99.90;;;;;;4997763;28;20558;-76
2021/01/01 05:40:06;;;;;;;16.05;7.68;;;1.60;99.90;;;;;;4996089;28;20198;-76
2021/01/01 05:42:32;;;;;;;13.32;6.18;;;1.60;99.90;;;;;;4994546;28;20199;-76
2021/01/01 05:45:15;;;;;;;14.07;6.38;;;1.60;99.90;;;;;;4994899;28;20557;-76
2021/01/01 05:47:41;;;;;;;13.40;5.88;;;1.60;99.90;;;;;;4995104;28;20641;-76
2021/01/01 05:50:08;;;;;;;15.93;6.22;;;1.60;99.90;;;;;;4996535;28;20214;-76
2021/01/01 05:52:34;;;;;;;14.15;6.80;;;1.60;99.90;;;;;;4996304;28;20211;-76
2021/01/01 05:55:02;;;;;;;15.68;6.00;;;1.60;99.90;;;;;;4996140;28;20217;-76
2021/01/01 05:57:36;;;;;;;15.35;7.10;;;1.60;99.90;;;;;;4995131;28;20290;-76
2021/01/01 06:00:09;;;;;;;13.27;6.38;;;1.60;99.90;;;;;;4993855;28;20214;-76
2021/01/01 06:02:39;;;;;;;14.82;7.15;;;1.60;99.90;;;;;;4996264;28;20226;-76
2021/01/01 06:05:08;;;;;;;24.67;8.77;;;1.50;99.90;;;;;;4994704;28;20891;-76
2021/01/01 06:07:40;;;;;;;19.50;7.55;;;1.50;99.90;;;;;;4993797;28;20214;-76
2021/01/01 06:10:08;;;;;;;22.20;8.35;;;1.50;99.90;;;;;;4992798;28;20225;-76
2021/01/01 06:12:35;;;;;;;23.73;8.48;;;1.50;99.90;;;;;;4994239;28;20199;-76
2021/01/01 06:15:02;;;;;;;17.55;8.25;;;1.50;99.90;;;;;;4994201;28;20230;-75
2021/01/01 06:17:34;;;;;;;22.25;8.27;;;1.50;99.90;;;;;;4993462;28;20202;-76
2021/01/01 06:19:59;;;;;;;17.70;7.35;;;1.50;99.90;;;;;;4994290;28;20306;-75
2021/01/01 06:22:32;;;;;;;17.05;7.03;;;1.50;99.90;;;;;;4996681;28;20645;-76
2021/01/01 06:24:58;;;;;;;16.33;7.07;;;1.50;99.90;;;;;;4995342;28;20282;-76
2021/01/01 06:27:27;;;;;;;17.00;7.22;;;1.50;99.90;;;;;;4993684;28;20207;-76
2021/01/01 06:29:55;;;;;;;20.27;8.40;;;1.50;99.90;;;;;;4997510;28;20759;-76
2021/01/01 06:32:21;;;;;;;19.90;7.18;;;1.50;99.90;;;;;;4998706;28;20205;-76
2021/01/01 06:34:47;;;;;;;19.80;7.10;;;1.50;99.90;;;;;;4995621;28;20293;-76
2021/01/01 06:37:46;;;;;;;18.05;7.32;;;1.50;99.90;;;;;;4991916;28;20191;-76
2021/01/01 06:40:21;;;;;;;20.50;7.57;;;1.50;99.90;;;;;;4994417;28;20203;-76
2021/01/01 06:42:49;;;;;;;21.08;7.85;;;1.50;99.90;;;;;;4992715;28;20214;-76
2021/01/01 06:45:40;;;;;;;17.15;7.88;;;1.50;99.90;;;;;;4995417;28;20274;-76
2021/01/01 06:48:06;;;;;;;18.95;7.30;;;1.50;99.90;;;;;;4996213;28;20191;-75
2021/01/01 06:50:34;;;;;;;17.45;7.38;;;1.50;99.90;;;;;;4997454;28;20783;-76
2021/01/01 06:53:07;;;;;;;15.95;7.60;;;1.50;99.90;;;;;;4995515;28;20213;-76
2021/01/01 06:55:40;;;;;;;19.67;7.50;;;1.50;99.90;;;;;;4996184;28;20211;-76
2021/01/01 06:58:08;;;;;;;18.42;7.35;;;1.50;99.90;;;;;;4999215;28;20191;-76
2021/01/01 07:00:49;;;;;;;17.85;7.32;;;1.50;99.90;;;;;;4993495;28;20294;-76
2021/01/01 07:03:27;;;;;;;18.92;7.43;;;1.50;99.90;;;;;;4998069;28;20248;-76
2021/01/01 07:06:15;;;;;;;15.93;7.20;;;1.50;99.90;;;;;;4996611;28;20219;-76
2021/01/01 07:08:41;;;;;;;14.95;7.03;;;1.50;99.90;;;;;;4997096;28;20211;-76
2021/01/01 07:11:13;;;;;;;21.30;6.93;;;1.40;99.90;;;;;;4996275;28;20677;-76
2021/01/01 07:13:41;;;;;;;17.77;7.25;;;1.50;99.90;;;;;;4996209;28;20200;-76
2021/01/01 07:16:07;;;;;;;23.98;7.85;;;1.40;99.90;;;;;;4997122;28;20215;-76
2021/01/01 07:18:33;;;;;;;17.23;6.78;;;1.40;99.90;;;;;;4992945;28;20208;-75
2021/01/01 07:21:00;;;;;;;17.92;7.43;;;1.40;99.90;;;;;;4997105;28;20246;-76
2021/01/01 07:23:29;;;;;;;16.15;7.10;;;1.40;99.90;;;;;;4997733;28;20202;-75
2021/01/01 07:25:57;;;;;;;19.05;7.93;;;1.40;99.90;;;;;;4996310;28;20282;-76
2021/01/01 07:28:24;;;;;;;21.10;8.70;;;1.40;99.90;;;;;;4999718;28;20214;-76
2021/01/01 07:30:50;;;;;;;19.88;8.40;;;1.40;99.90;;;;;;4995556;28;20897;-76
2021/01/01 07:33:25;;;;;;;20.63;7.82;;;1.40;99.90;;;;;;4997438;28;20195;-75
2021/01/01 07:35:51;;;;;;;23.60;9.20;;;1.40;99.90;;;;;;4998110;28;20213;-76
2021/01/01 07:38:22;;;;;;;23.52;9.70;;;1.40;99.90;;;;;;4992296;28;20223;-76
2021/01/01 07:40:48;;;;;;;19.42;8.02;;;1.40;99.90;;;;;;4992951;28;20642;-76
2021/01/01 07:43:14;;;;;;;17.00;7.72;;;1.40;99.90;;;;;;4994962;28;20250;-76
2021/01/01 07:45:40;;;;;;;27.55;8.02;;;1.40;99.90;;;;;;4996867;28;20206;-76
2021/01/01 07:48:07;;;;;;;23.85;8.90;;;1.40;99.90;;;;;;4994294;28;20230;-76
2021/01/01 07:50:34;;;;;;;20.77;9.07;;;1.50;99.90;;;;;;4994258;28;20206;-76
2021/01/01 07:53:07;;;;;;;20.52;7.63;;;1.40;99.90;;;;;;4998536;28;20306;-76
2021/01/01 07:55:33;;;;;;;16.52;7.05;;;1.50;99.90;;;;;;4997605;28;20594;-76
2021/01/01 07:58:10;;;;;;;19.70;7.82;;;1.50;99.90;;;;;;4999697;28;20199;-76
2021/01/01 08:00:39;;;;;;;16.92;7.15;;;1.50;99.90;;;;;;4998991;28;20209;-76
2021/01/01 08:03:07;;;;;;;14.60;6.68;;;1.50;99.90;;;;;;4999281;28;20229;-76
2021/01/01 08:05:33;;;;;;;16.90;6.93;;;1.50;99.90;;;;;;4995678;28;20242;-78
2021/01/01 08:08:11;;;;;;;35.72;16.08;;;1.50;99.90;;;;;;4999849;28;20225;-76
2021/01/01 08:10:37;;;;;;;23.83;11.05;;;1.50;99.90;;;;;;4999223;28;20194;-77
2021/01/01 08:13:03;;;;;;;23.88;11.82;;;1.40;99.90;;;;;;4993286;28;20203;-77
2021/01/01 08:15:30;;;;;;;18.80;8.70;;;1.40;99.90;;;;;;4992947;28;20208;-76
2021/01/01 08:17:56;;;;;;;18.08;7.60;;;1.50;99.90;;;;;;4994148;28;20195;-77
2021/01/01 08:20:22;;;;;;;17.88;8.07;;;1.50;99.90;;;;;;4993466;28;20219;-77
2021/01/01 08:22:51;;;;;;;20.77;7.88;;;1.40;99.90;;;;;;4997904;28;20226;-77
2021/01/01 08:25:17;;;;;;;15.00;7.18;;;1.40;99.90;;;;;;4990960;28;20225;-77
2021/01/01 08:27:46;;;;;;;17.45;7.40;;;1.40;99.90;;;;;;4994258;28;20225;-77
2021/01/01 08:30:15;;;;;;;17.58;7.00;;;1.40;99.90;;;;;;4992948;28;20211;-77
2021/01/01 08:32:41;;;;;;;21.48;8.13;;;1.40;99.90;;;;;;4991804;28;20273;-76
2021/01/01 08:35:10;;;;;;;20.08;7.75;;;1.40;99.90;;;;;;4995138;28;20732;-78
2021/01/01 08:37:36;;;;;;;16.30;7.38;;;1.40;99.90;;;;;;4991083;28;20279;-77
2021/01/01 08:40:10;;;;;;;19.85;8.23;;;1.40;99.90;;;;;;4994830;28;20278;-76
2021/01/01 08:42:37;;;;;;;17.52;7.32;;;1.40;99.90;;;;;;4997386;28;20575;-77
2021/01/01 08:45:06;;;;;;;17.75;7.78;;;1.40;99.90;;;;;;4995459;28;20199;-76
2021/01/01 08:47:38;;;;;;;25.58;11.20;;;1.40;99.90;;;;;;4992779;28;20197;-77
2021/01/01 08:50:23;;;;;;;27.13;12.95;;;1.30;99.90;;;;;;4990753;28;20940;-78
2021/01/01 08:52:51;;;;;;;22.58;9.75;;;1.40;99.90;;;;;;4991601;28;20211;-77
2021/01/01 08:55:17;;;;;;;21.33;8.60;;;1.40;99.90;;;;;;4991373;28;20242;-77
2021/01/01 08:57:43;;;;;;;17.23;7.57;;;1.50;99.90;;;;;;4993049;28;20337;-76
2021/01/01 09:00:10;;;;;;;44.30;23.73;;;1.50;99.90;;;;;;4988917;28;20283;-77
2021/01/01 09:02:35;;;;;;;65.07;31.67;;;1.50;99.90;;;;;;4985368;28;20522;-76
2021/01/01 09:05:04;;;;;;;68.45;34.17;;;1.50;99.90;;;;;;4985670;28;20423;-77
2021/01/01 09:07:29;;;;;;;16.60;9.38;;;1.40;99.90;;;;;;4994347;28;20338;-76
2021/01/01 09:09:55;;;;;;;24.60;12.68;;;1.40;99.90;;;;;;4993133;28;20333;-77
2021/01/01 09:12:22;;;;;;;20.25;9.82;;;1.30;99.90;;;;;;4985685;28;20744;-77
2021/01/01 09:14:53;;;;;;;21.02;10.20;;;1.30;99.90;;;;;;4993343;28;20215;-78
2021/01/01 09:17:21;;;;;;;19.05;8.98;;;1.40;99.90;;;;;;4991039;28;20195;-77
2021/01/01 09:19:47;;;;;;;23.13;9.18;;;1.40;99.90;;;;;;4989411;28;20200;-77
2021/01/01 09:22:19;;;;;;;20.98;8.27;;;1.50;99.90;;;;;;4988351;28;20709;-78
2021/01/01 09:24:46;;;;;;;21.50;7.93;;;1.50;99.90;;;;;;4993273;28;20218;-77
2021/01/01 09:27:13;;;;;;;15.55;7.78;;;1.50;99.90;;;;;;4985615;28;20207;-77
2021/01/01 09:29:39;;;;;;;16.00;7.40;;;1.50;99.90;;;;;;4989614;28;20203;-77
2021/01/01 09:32:08;;;;;;;20.02;8.65;;;1.50;99.90;;;;;;4993333;28;20202;-77
2021/01/01 09:34:33;;;;;;;23.13;9.30;;;1.50;99.90;;;;;;4991229;28;20198;-77
2021/01/01 09:37:06;;;;;;;19.35;8.65;;;1.50;99.90;;;;;;4986943;28;20199;-77
2021/01/01 09:39:31;;;;;;;27.40;10.75;;;1.50;99.90;;;;;;4987628;28;20615;-77
2021/01/01 09:41:57;;;;;;;35.67;14.88;;;1.60;99.90;;;;;;4989536;28;21058;-76
2021/01/01 09:44:23;;;;;;;30.20;11.43;;;1.50;99.90;;;;;;4979145;28;20234;-77
2021/01/01 09:46:48;;;;;;;39.15;19.65;;;1.60;99.90;;;;;;4988881;28;20225;-77
2021/01/01 09:49:14;;;;;;;48.38;19.20;;;1.60;99.90;;;;;;4988223;28;20284;-77
2021/01/01 09:51:40;;;;;;;30.25;13.65;;;1.60;99.90;;;;;;4982889;28;20631;-76
2021/01/01 09:54:05;;;;;;;22.33;10.15;;;1.70;99.90;;;;;;4984143;28;20203;-78
2021/01/01 09:56:35;;;;;;;24.08;10.40;;;1.70;99.90;;;;;;4968009;28;20222;-77
2021/01/01 09:59:02;;;;;;;26.20;9.07;;;1.80;99.90;;;;;;4989397;28;20256;-77
2021/01/01 10:01:29;;;;;;;21.08;7.35;;;1.80;99.90;;;;;;4987361;28;20196;-77
2021/01/01 10:03:54;;;;;;;16.60;7.60;;;1.90;99.90;;;;;;4988820;28;20233;-77
2021/01/01 10:06:20;;;;;;;18.98;8.20;;;1.90;99.90;;;;;;4991698;28;20199;-77
2021/01/01 10:08:46;;;;;;;16.33;8.23;;;1.90;99.90;;;;;;4995456;28;20561;-78
2021/01/01 10:11:13;;;;;;;13.13;7.13;;;1.90;99.90;;;;;;4990002;28;20238;-78
2021/01/01 10:13:39;;;;;;;19.83;8.23;;;1.90;99.90;;;;;;4994936;28;20198;-79
2021/01/01 10:16:07;;;;;;;14.52;7.20;;;1.90;99.90;;;;;;4998900;28;20210;-78
2021/01/01 10:18:33;;;;;;;20.13;8.40;;;1.80;99.90;;;;;;4993478;28;20285;-77
2021/01/01 10:20:58;;;;;;;22.48;9.13;;;1.90;99.90;;;;;;4994517;28;20198;-78
2021/01/01 10:23:24;;;;;;;22.13;11.65;;;1.90;99.90;;;;;;4993024;28;20199;-77
2021/01/01 10:25:51;;;;;;;22.05;8.30;;;1.90;99.90;;;;;;4989649;28;20595;-77
2021/01/01 10:28:17;;;;;;;18.83;8.75;;;1.90;99.90;;;;;;4994980;28;20555;-77
2021/01/01 10:30:44;;;;;;;17.98;8.52;;;1.90;99.90;;;;;;4992045;28;20658;-77
2021/01/01 10:33:10;;;;;;;15.45;7.43;;;1.90;99.90;;;;;;4990799;28;20209;-77
2021/01/01 10:35:36;;;;;;;18.73;8.60;;;1.90;99.90;;;;;;4990575;28;20215;-77
2021/01/01 10:38:02;;;;;;;23.33;9.15;;;1.90;99.90;;;;;;4989992;28;20274;-77
2021/01/01 10:40:28;;;;;;;26.80;12.70;;;1.90;99.90;;;;;;4990253;28;20215;-77
2021/01/01 10:42:54;;;;;;;20.13;9.13;;;1.90;99.90;;;;;;4992163;28;20194;-77
2021/01/01 10:45:20;;;;;;;24.25;9.65;;;1.90;99.90;;;;;;4990267;28;20207;-77
2021/01/01 10:47:47;;;;;;;21.30;9.93;;;2.00;99.90;;;;;;4993004;28;20710;-77
2021/01/01 10:50:13;;;;;;;60.47;33.38;;;2.00;99.90;;;;;;4992842;28;20198;-76
2021/01/01 10:52:38;;;;;;;21.35;10.18;;;2.10;99.90;;;;;;4992779;28;20716;-76
2021/01/01 10:55:05;;;;;;;16.95;8.52;;;2.10;99.90;;;;;;4997634;28;20225;-76
2021/01/01 10:57:30;;;;;;;28.13;12.85;;;2.10;99.90;;;;;;4993789;28;20674;-76
2021/01/01 10:59:56;;;;;;;47.22;24.05;;;2.10;99.90;;;;;;4996236;28;20281;-76
2021/01/01 11:02:21;;;;;;;34.53;18.23;;;2.10;99.90;;;;;;4997758;28;20282;-76
2021/01/01 11:04:47;;;;;;;39.35;18.45;;;2.10;99.90;;;;;;4994593;28;20250;-76
2021/01/01 11:07:13;;;;;;;29.98;14.00;;;2.10;99.90;;;;;;4997980;28;20218;-76
2021/01/01 11:09:38;;;;;;;25.10;13.48;;;2.10;99.90;;;;;;4994673;28;20225;-77
2021/01/01 11:12:05;;;;;;;24.63;12.73;;;2.10;99.90;;;;;;4994953;28;20238;-77
2021/01/01 12:20:46;;;;;;;14.75;7.35;;;2.10;99.90;;;;;;5011705;28;20226;-77
2021/01/01 12:25:53;;;;;;;16.35;7.38;;;2.10;99.90;;;;;;5002275;28;20688;-77
2021/01/01 12:28:19;;;;;;;13.65;7.22;;;2.10;99.90;;;;;;5000150;28;20198;-77
2021/01/01 12:30:45;;;;;;;21.52;8.15;;;2.10;99.90;;;;;;5002322;28;20285;-77
2021/01/01 12:33:14;;;;;;;19.90;8.93;;;2.10;99.90;;;;;;4992852;28;20294;-77
2021/01/01 12:35:40;;;;;;;21.40;10.43;;;2.10;99.90;;;;;;4997445;28;20210;-78
2021/01/01 12:38:08;;;;;;;21.50;10.30;;;2.20;99.90;;;;;;4999362;28;20678;-78
2021/01/01 12:40:34;;;;;;;17.40;8.65;;;2.20;99.90;;;;;;5001553;28;20194;-77
2021/01/01 12:43:02;;;;;;;18.33;8.88;;;2.20;99.90;;;;;;5000931;28;20697;-78
2021/01/01 12:45:27;;;;;;;18.88;8.27;;;2.20;99.90;;;;;;4995665;28;20604;-77
2021/01/01 12:47:53;;;;;;;15.50;8.18;;;2.20;99.90;;;;;;4999629;28;20249;-78
2021/01/01 12:50:19;;;;;;;16.60;8.52;;;2.10;99.90;;;;;;4997107;28;20244;-77
2021/01/01 12:52:51;;;;;;;16.05;8.20;;;2.10;99.90;;;;;;4995412;28;20207;-77
2021/01/01 12:55:18;;;;;;;16.38;8.27;;;2.10;99.90;;;;;;5000349;28;20210;-77
2021/01/01 12:57:44;;;;;;;16.98;8.30;;;2.00;99.90;;;;;;4998891;28;20294;-77
2021/01/01 13:00:10;;;;;;;16.23;7.97;;;2.00;99.90;;;;;;5001152;28;20752;-78
2021/01/01 13:02:36;;;;;;;13.43;7.80;;;2.10;99.90;;;;;;5000455;28;20206;-77
2021/01/01 13:05:01;;;;;;;14.60;7.57;;;2.10;99.90;;;;;;5000247;28;20702;-77
2021/01/01 13:07:27;;;;;;;15.55;7.97;;;2.00;99.90;;;;;;4999798;28;20301;-77
2021/01/01 13:09:53;;;;;;;15.05;8.15;;;2.00;99.90;;;;;;5015476;28;20682;-78
2021/01/01 13:12:18;;;;;;;18.45;8.27;;;2.00;99.90;;;;;;4999504;28;20289;-78
2021/01/01 13:14:44;;;;;;;13.93;7.63;;;2.00;99.90;;;;;;4995257;28;20207;-78
2021/01/01 13:17:10;;;;;;;16.13;7.90;;;2.00;99.90;;;;;;5004335;28;20265;-77
2021/01/01 13:19:35;;;;;;;14.30;7.88;;;2.00;99.90;;;;;;5000774;28;20775;-77
2021/01/01 13:22:01;;;;;;;15.15;7.72;;;1.90;99.90;;;;;;5003066;28;20595;-77
2021/01/01 13:24:27;;;;;;;18.17;8.18;;;1.90;99.90;;;;;;4999415;28;20282;-78
2021/01/01 13:26:52;;;;;;;15.98;8.23;;;2.00;99.90;;;;;;5000563;28;20697;-78
2021/01/01 13:29:18;;;;;;;15.90;8.15;;;2.00;99.90;;;;;;5004504;28;20537;-78
2021/01/01 13:31:44;;;;;;;16.17;7.97;;;2.00;99.90;;;;;;5001743;28;20203;-78
2021/01/01 13:34:10;;;;;;;20.30;8.07;;;2.00;99.90;;;;;;4995302;28;20644;-79
2021/01/01 13:36:38;;;;;;;17.17;8.57;;;2.10;99.90;;;;;;4997552;28;20219;-78
2021/01/01 13:39:05;;;;;;;14.52;7.63;;;2.10;99.90;;;;;;5000773;28;20205;-78
2021/01/01 13:41:31;;;;;;;15.05;7.95;;;2.10;99.90;;;;;;5004041;28;20195;-78
2021/01/01 13:43:57;;;;;;;14.38;7.72;;;2.20;99.90;;;;;;4993970;28;20321;-78
2021/01/01 13:46:32;;;;;;;15.05;8.20;;;2.20;99.90;;;;;;5001274;28;20599;-78
2021/01/01 13:48:59;;;;;;;13.52;7.53;;;2.10;99.90;;;;;;5001530;28;20202;-79
2021/01/01 13:51:35;;;;;;;17.17;7.32;;;2.20;99.90;;;;;;5003469;28;20202;-77
2021/01/01 13:54:02;;;;;;;15.93;7.93;;;2.20;99.90;;;;;;5000759;28;20211;-78
2021/01/01 13:56:28;;;;;;;17.60;8.25;;;2.20;99.90;;;;;;4993531;28;20214;-78